createdAt,value
2023-05-07T00:00:01.533Z,28.33
2023-05-07T00:02:28.572Z,26.55
2023-05-07T00:04:56.521Z,29.55
2023-05-07T00:07:23.695Z,31.88
2023-05-07T00:09:50.585Z,25.80
2023-05-07T00:12:18.551Z,25.17
2023-05-07T00:14:45.624Z,28.40
2023-05-07T00:17:12.479Z,26.45
2023-05-07T00:19:39.356Z,31.98
2023-05-07T00:22:08.112Z,24.77
2023-05-07T00:24:35.509Z,28.25
2023-05-07T00:27:02.374Z,24.38
2023-05-07T00:29:30.361Z,24.25
2023-05-07T00:31:57.248Z,27.33
2023-05-07T00:34:24.210Z,28.65
2023-05-07T00:36:51.080Z,29.10
2023-05-07T00:39:40.480Z,18.65
2023-05-07T00:42:09.159Z,22.73
2023-05-07T00:44:36.002Z,23.85
2023-05-07T00:47:03.852Z,30.65
2023-05-07T00:49:42.242Z,23.42
2023-05-07T00:52:10.200Z,25.45
2023-05-07T00:57:21.262Z,24.90
2023-05-07T00:59:48.128Z,24.20
2023-05-07T01:02:15.164Z,26.10
2023-05-07T01:04:42.232Z,24.90
2023-05-07T01:24:04.103Z,23.15
2023-05-07T01:27:27.396Z,29.35
2023-05-07T01:29:54.277Z,25.30
2023-05-07T01:32:39.630Z,23.25
2023-05-07T01:35:07.185Z,25.25
2023-05-07T01:37:34.128Z,27.83
2023-05-07T01:45:37.807Z,22.45
2023-05-07T01:51:02.799Z,25.73
2023-05-07T02:13:23.459Z,21.13
2023-05-07T02:19:22.639Z,19.95
2023-05-07T02:22:43.756Z,23.10
2023-05-07T02:28:11.427Z,24.27
2023-05-07T02:41:31.555Z,24.50
2023-05-07T02:47:24.514Z,25.27
2023-05-07T02:56:08.094Z,20.80
2023-05-07T03:05:15.516Z,23.00
2023-05-07T03:08:28.609Z,21.83
2023-05-07T03:39:58.892Z,15.20
2023-05-07T03:43:17.872Z,14.00
2023-05-07T03:54:40.528Z,21.43
2023-05-07T03:57:07.381Z,20.98
2023-05-07T04:07:45.527Z,21.13
2023-05-07T04:22:20.501Z,22.35
2023-05-07T04:27:07.506Z,17.48
2023-05-07T04:48:58.748Z,22.88
2023-05-07T04:52:27.786Z,39.30
2023-05-07T04:59:45.818Z,20.73
2023-05-07T05:02:12.753Z,29.37
2023-05-07T05:09:23.197Z,20.85
2023-05-07T05:25:58.864Z,16.63
2023-05-07T05:49:34.914Z,16.40
2023-05-07T05:52:01.790Z,23.50
2023-05-07T06:13:10.249Z,29.32
2023-05-07T06:22:35.620Z,21.13
2023-05-07T06:29:34.802Z,20.45
2023-05-07T06:35:16.374Z,21.01
2023-05-07T06:38:13.532Z,25.45
2023-05-07T06:43:23.172Z,24.55
2023-05-07T06:45:56.631Z,27.93
2023-05-07T06:54:38.582Z,30.38
2023-05-07T07:08:56.478Z,22.83
2023-05-07T07:16:37.496Z,35.26
2023-05-07T07:22:05.715Z,18.38
2023-05-07T07:24:32.545Z,25.06
2023-05-07T07:27:27.336Z,25.74
2023-05-07T07:29:58.761Z,30.40
2023-05-07T07:32:25.728Z,21.42
2023-05-07T07:34:52.697Z,22.80
2023-05-07T07:37:19.596Z,17.10
2023-05-07T07:39:47.458Z,23.03
2023-05-07T07:42:14.324Z,21.42
2023-05-07T07:44:41.183Z,21.70
2023-05-07T07:47:08.179Z,23.98
2023-05-07T07:49:35.184Z,20.77
2023-05-07T07:52:02.025Z,26.33
2023-05-07T07:54:30.358Z,22.55
2023-05-07T07:56:57.228Z,24.02
2023-05-07T07:59:24.050Z,22.88
2023-05-07T08:01:55.372Z,24.80
2023-05-07T08:04:22.895Z,20.92
2023-05-07T08:06:49.925Z,21.02
2023-05-07T08:09:16.817Z,19.88
2023-05-07T08:11:43.676Z,15.82
2023-05-07T08:14:12.114Z,21.70
2023-05-07T08:16:40.048Z,20.20
2023-05-07T08:19:06.958Z,19.88
2023-05-07T08:21:35.371Z,19.75
2023-05-07T08:24:02.228Z,29.58
2023-05-07T08:26:29.095Z,26.42
2023-05-07T08:28:56.011Z,25.58
2023-05-07T08:31:22.887Z,30.05
2023-05-07T08:33:49.849Z,26.30
2023-05-07T08:36:16.750Z,24.33
2023-05-07T08:38:46.713Z,26.08
2023-05-07T08:41:13.774Z,27.00
2023-05-07T08:43:41.901Z,28.05
2023-05-07T08:46:10.635Z,25.35
2023-05-07T08:48:37.589Z,29.65
2023-05-07T08:51:05.511Z,25.27
2023-05-07T08:53:32.437Z,26.33
2023-05-07T08:55:59.678Z,27.77
2023-05-07T08:58:26.567Z,26.80
2023-05-07T09:00:53.620Z,29.25
2023-05-07T09:03:20.628Z,23.67
2023-05-07T09:05:48.609Z,25.83
2023-05-07T09:08:16.489Z,24.77
2023-05-07T09:10:43.528Z,23.42
2023-05-07T09:13:12.101Z,23.60
2023-05-07T09:15:39.089Z,25.50
2023-05-07T09:18:06.033Z,27.80
2023-05-07T09:20:33.092Z,29.08
2023-05-07T09:23:01.075Z,25.10
2023-05-07T09:25:32.677Z,27.17
2023-05-07T09:28:01.355Z,29.38
2023-05-07T09:30:30.558Z,25.00
2023-05-07T09:32:58.757Z,31.88
2023-05-07T09:35:29.553Z,28.73
2023-05-07T09:37:57.048Z,23.80
2023-05-07T09:40:24.980Z,26.77
2023-05-07T09:42:51.906Z,24.67
2023-05-07T09:45:28.787Z,25.63
2023-05-07T09:47:56.933Z,26.30
2023-05-07T09:50:37.153Z,23.33
2023-05-07T09:53:04.857Z,22.27
2023-05-07T09:55:31.781Z,23.38
2023-05-07T09:57:58.630Z,22.05
2023-05-07T10:00:25.568Z,24.65
2023-05-07T10:02:55.577Z,23.67
2023-05-07T10:05:27.699Z,24.85
2023-05-07T10:07:54.574Z,23.85
2023-05-07T10:10:21.469Z,19.27
2023-05-07T10:12:48.422Z,22.75
2023-05-07T10:15:15.664Z,18.05
2023-05-07T10:17:42.717Z,22.50
2023-05-07T10:20:09.867Z,21.70
2023-05-07T10:22:43.986Z,23.95
2023-05-07T10:25:27.515Z,22.08
2023-05-07T10:27:54.377Z,31.23
2023-05-07T10:30:27.794Z,26.10
2023-05-07T10:32:59.150Z,22.17
2023-05-07T10:35:27.496Z,21.23
2023-05-07T10:37:54.341Z,25.75
2023-05-07T10:40:21.741Z,31.10
2023-05-07T10:43:10.013Z,24.17
2023-05-07T10:45:37.782Z,28.33
2023-05-07T10:50:45.624Z,33.55
2023-05-07T10:53:18.827Z,30.17
2023-05-07T10:55:45.672Z,31.98
2023-05-07T10:58:32.541Z,25.05
2023-05-07T11:01:00.831Z,27.73
2023-05-07T11:03:28.466Z,24.05
2023-05-07T11:06:14.184Z,26.95
2023-05-07T11:08:59.307Z,28.33
2023-05-07T11:11:47.971Z,24.08
2023-05-07T11:14:15.996Z,24.73
2023-05-07T11:16:43.926Z,25.15
2023-05-07T11:19:10.892Z,27.63
2023-05-07T11:21:38.835Z,25.58
2023-05-07T11:24:06.808Z,24.55
2023-05-07T11:26:50.195Z,26.30
2023-05-07T11:29:23.760Z,22.25
2023-05-07T11:31:54.813Z,24.90
2023-05-07T11:34:24.751Z,24.63
2023-05-07T11:36:51.728Z,26.70
2023-05-07T11:39:26.163Z,27.70
2023-05-07T11:41:53.688Z,29.90
2023-05-07T11:44:20.891Z,37.58
2023-05-07T11:46:47.776Z,32.95
2023-05-07T11:49:14.733Z,38.22
2023-05-07T11:51:42.935Z,38.88
2023-05-07T11:54:12.184Z,42.97
2023-05-07T11:56:39.840Z,35.85
2023-05-07T11:59:07.288Z,28.17
2023-05-07T12:01:36.246Z,36.85
2023-05-07T12:06:31.980Z,43.28
2023-05-07T12:08:58.838Z,44.65
2023-05-07T12:11:26.876Z,35.42
2023-05-07T12:13:58.955Z,34.25
2023-05-07T12:16:26.748Z,39.92
2023-05-07T12:18:56.015Z,40.28
2023-05-07T12:21:23.227Z,40.05
2023-05-07T12:23:50.136Z,34.40
2023-05-07T12:26:17.046Z,30.00
2023-05-07T12:28:43.917Z,27.08
2023-05-07T12:31:11.583Z,28.45
2023-05-07T12:33:38.607Z,29.98
2023-05-07T12:36:08.402Z,35.38
2023-05-07T12:38:44.471Z,28.77
2023-05-07T12:41:13.302Z,29.70
2023-05-07T12:43:40.374Z,25.30
2023-05-07T12:46:08.134Z,25.52
2023-05-07T12:48:36.815Z,25.65
2023-05-07T12:51:03.899Z,25.25
2023-05-07T12:53:32.178Z,25.73
2023-05-07T12:55:59.917Z,25.65
2023-05-07T12:58:28.346Z,28.17
2023-05-07T13:00:55.432Z,25.73
2023-05-07T13:03:30.924Z,23.15
2023-05-07T13:06:03.923Z,28.42
2023-05-07T13:08:46.299Z,28.60
2023-05-07T13:11:13.609Z,28.65
2023-05-07T13:13:41.720Z,27.20
2023-05-07T13:16:10.020Z,26.73
2023-05-07T13:18:37.564Z,27.08
2023-05-07T13:21:04.759Z,25.15
2023-05-07T13:23:31.782Z,33.30
2023-05-07T13:25:58.721Z,41.17
2023-05-07T13:28:25.793Z,43.15
2023-05-07T13:30:53.273Z,37.05
2023-05-07T13:33:20.180Z,33.65
2023-05-07T13:35:47.111Z,28.67
2023-05-07T13:38:14.030Z,32.75
2023-05-07T13:40:41.905Z,37.42
2023-05-07T13:43:09.082Z,45.15
2023-05-07T13:45:36.073Z,48.03
2023-05-07T13:48:04.239Z,54.08
2023-05-07T13:50:31.230Z,52.92
2023-05-07T13:52:58.140Z,48.15
2023-05-07T13:55:25.264Z,58.80
2023-05-07T13:58:01.034Z,49.42
2023-05-07T14:00:28.315Z,56.97
2023-05-07T14:02:56.019Z,57.35
2023-05-07T14:05:27.707Z,49.10
2023-05-07T14:07:55.227Z,47.40
2023-05-07T14:10:22.124Z,45.83
2023-05-07T14:12:49.041Z,40.65
2023-05-07T14:15:16.448Z,31.27
2023-05-07T14:17:44.127Z,34.85
2023-05-07T14:20:13.372Z,31.55
2023-05-07T14:22:40.626Z,34.35
2023-05-07T14:25:08.185Z,39.40
2023-05-07T14:27:35.148Z,39.80
2023-05-07T14:30:02.228Z,44.90
2023-05-07T14:32:29.128Z,51.45
2023-05-07T14:34:55.991Z,49.67
2023-05-07T14:37:22.876Z,48.42
2023-05-07T14:39:50.181Z,52.50
2023-05-07T14:42:18.210Z,51.70
2023-05-07T14:44:46.611Z,46.95
2023-05-07T14:47:14.056Z,43.33
2023-05-07T14:49:41.895Z,47.75
2023-05-07T14:52:11.226Z,41.20
2023-05-07T14:54:39.267Z,46.10
2023-05-07T14:57:06.900Z,48.50
2023-05-07T14:59:33.879Z,45.63
2023-05-07T15:02:01.234Z,47.38
2023-05-07T15:04:29.514Z,37.50
2023-05-07T15:06:57.113Z,39.40
2023-05-07T15:09:25.044Z,39.35
2023-05-07T15:11:51.958Z,38.70
2023-05-07T15:14:19.014Z,38.30
2023-05-07T15:16:46.842Z,34.10
2023-05-07T15:19:15.906Z,41.08
2023-05-07T15:21:42.902Z,39.95
2023-05-07T15:24:10.411Z,39.85
2023-05-07T15:26:37.537Z,40.55
2023-05-07T15:29:11.057Z,36.60
2023-05-07T15:31:41.226Z,38.50
2023-05-07T15:34:08.201Z,33.92
2023-05-07T15:36:35.043Z,33.30
2023-05-07T15:39:03.668Z,34.70
2023-05-07T15:41:30.878Z,36.47
2023-05-07T15:43:58.753Z,35.28
2023-05-07T15:46:26.004Z,38.08
2023-05-07T15:48:53.746Z,38.33
2023-05-07T15:51:23.713Z,32.03
2023-05-07T15:53:52.025Z,37.05
2023-05-07T15:56:19.075Z,39.45
2023-05-07T15:58:46.462Z,37.08
2023-05-07T16:01:13.370Z,36.95
2023-05-07T16:03:41.328Z,32.90
2023-05-07T16:06:08.495Z,37.22
2023-05-07T16:08:35.543Z,32.85
2023-05-07T16:11:02.422Z,30.88
2023-05-07T16:13:29.382Z,27.30
2023-05-07T16:15:58.455Z,31.27
2023-05-07T16:18:25.425Z,23.95
2023-05-07T16:20:52.658Z,24.30
2023-05-07T16:23:19.537Z,26.77
2023-05-07T16:25:46.522Z,28.20
2023-05-07T16:28:14.069Z,25.90
2023-05-07T16:30:41.045Z,28.30
2023-05-07T16:33:08.401Z,26.33
2023-05-07T16:35:36.293Z,27.42
2023-05-07T16:38:09.880Z,28.10
2023-05-07T16:40:40.260Z,29.75
2023-05-07T16:43:07.193Z,32.70
2023-05-07T16:45:34.126Z,28.80
2023-05-07T16:48:01.347Z,27.17
2023-05-07T16:50:28.307Z,27.58
2023-05-07T16:52:55.218Z,29.90
2023-05-07T16:55:22.201Z,30.05
2023-05-07T16:57:49.055Z,29.83
2023-05-07T17:00:16.888Z,32.20
2023-05-07T17:02:43.985Z,33.03
2023-05-07T17:05:12.129Z,26.40
2023-05-07T17:07:39.169Z,30.38
2023-05-07T17:10:06.536Z,32.80
2023-05-07T17:12:35.686Z,35.63
2023-05-07T17:15:02.680Z,30.17
2023-05-07T17:17:29.657Z,32.47
2023-05-07T17:19:56.982Z,35.15
2023-05-07T17:22:25.155Z,27.20
2023-05-07T17:24:52.204Z,32.60
2023-05-07T17:27:19.225Z,25.90
2023-05-07T17:29:46.077Z,29.65
2023-05-07T17:32:13.040Z,39.13
2023-05-07T17:34:39.966Z,33.85
2023-05-07T17:37:06.822Z,31.88
2023-05-07T17:39:33.746Z,31.77
2023-05-07T17:42:03.694Z,34.35
2023-05-07T17:44:30.685Z,31.80
2023-05-07T17:46:57.614Z,35.58
2023-05-07T17:49:24.564Z,37.85
2023-05-07T17:51:55.414Z,34.40
2023-05-07T17:54:26.092Z,33.42
2023-05-07T17:56:53.186Z,31.60
2023-05-07T17:59:23.141Z,32.63
2023-05-07T18:01:51.077Z,29.83
2023-05-07T18:04:20.003Z,28.52
2023-05-07T18:06:48.044Z,36.17
2023-05-07T18:09:15.928Z,33.47
2023-05-07T18:11:42.810Z,33.92
2023-05-07T18:14:09.704Z,31.02
2023-05-07T18:16:36.651Z,34.45
2023-05-07T18:19:03.604Z,31.38
2023-05-07T18:21:30.586Z,31.30
2023-05-07T18:23:57.604Z,29.88
2023-05-07T18:26:24.500Z,35.45
2023-05-07T18:28:51.476Z,36.33
2023-05-07T18:31:18.348Z,34.55
2023-05-07T18:33:46.333Z,32.10
2023-05-07T18:36:13.187Z,34.67
2023-05-07T18:38:42.643Z,27.67
2023-05-07T18:41:09.640Z,29.55
2023-05-07T18:43:36.727Z,33.08
2023-05-07T18:46:03.640Z,32.03
2023-05-07T18:48:30.904Z,30.92
2023-05-07T18:50:59.825Z,33.60
2023-05-07T18:53:29.107Z,30.30
2023-05-07T18:55:58.058Z,29.40
2023-05-07T18:58:24.905Z,31.98
2023-05-07T19:00:51.845Z,38.55
2023-05-07T19:03:20.760Z,31.02
2023-05-07T19:05:48.660Z,33.05
2023-05-07T19:08:16.519Z,34.50
2023-05-07T19:10:45.177Z,39.70
2023-05-07T19:13:12.325Z,31.85
2023-05-07T19:15:39.726Z,34.53
2023-05-07T19:18:06.658Z,34.95
2023-05-07T19:20:33.536Z,30.95
2023-05-07T19:23:00.422Z,34.47
2023-05-07T19:25:27.319Z,31.95
2023-05-07T19:27:55.829Z,33.22
2023-05-07T19:30:22.748Z,28.25
2023-05-07T19:32:49.634Z,35.30
2023-05-07T19:35:16.628Z,39.78
2023-05-07T19:37:43.524Z,39.25
2023-05-07T19:40:10.965Z,44.80
2023-05-07T19:42:37.956Z,34.55
2023-05-07T19:45:05.620Z,31.52
2023-05-07T19:47:33.590Z,29.70
2023-05-07T19:50:00.478Z,30.15
2023-05-07T19:52:27.385Z,41.22
2023-05-07T19:54:54.776Z,41.05
2023-05-07T19:57:21.648Z,33.47
2023-05-07T19:59:48.520Z,31.52
2023-05-07T20:02:15.639Z,39.22
2023-05-07T20:04:42.588Z,32.72
2023-05-07T20:07:12.611Z,37.92
2023-05-07T20:09:41.687Z,46.95
2023-05-07T20:12:10.719Z,41.50
2023-05-07T20:14:37.610Z,43.75
2023-05-07T20:17:05.574Z,38.47
2023-05-07T20:19:32.463Z,36.50
2023-05-07T20:21:59.294Z,40.83
2023-05-07T20:24:26.165Z,43.90
2023-05-07T20:26:53.059Z,39.67
2023-05-07T20:29:22.702Z,42.72
2023-05-07T20:31:50.639Z,47.00
2023-05-07T20:34:17.536Z,49.33
2023-05-07T20:36:45.345Z,41.03
2023-05-07T20:39:16.003Z,45.00
2023-05-07T20:41:44.260Z,43.22
2023-05-07T20:44:12.221Z,46.00
2023-05-07T20:46:40.173Z,39.65
2023-05-07T20:49:07.130Z,54.42
2023-05-07T20:51:35.260Z,52.67
2023-05-07T20:54:02.306Z,47.33
2023-05-07T20:56:30.171Z,50.53
2023-05-07T20:58:57.009Z,46.70
2023-05-07T21:01:23.977Z,44.70
2023-05-07T21:03:53.801Z,40.13
2023-05-07T21:06:21.025Z,45.03
2023-05-07T21:08:47.864Z,53.00
2023-05-07T21:11:14.699Z,48.75
2023-05-07T21:13:41.562Z,39.35
2023-05-07T21:16:10.161Z,44.85
2023-05-07T21:18:37.471Z,41.58
2023-05-07T21:21:08.485Z,44.97
2023-05-07T21:23:36.034Z,48.57
2023-05-07T21:26:03.457Z,49.50
2023-05-07T21:28:30.485Z,59.67
2023-05-07T21:30:57.329Z,60.33
2023-05-07T21:33:24.229Z,55.80
2023-05-07T21:35:53.544Z,48.20
2023-05-07T21:38:20.413Z,48.00
2023-05-07T21:40:47.308Z,49.53
2023-05-07T21:43:14.203Z,45.08
2023-05-07T21:45:41.284Z,51.03
2023-05-07T21:48:08.386Z,52.95
2023-05-07T21:50:35.279Z,61.17
2023-05-07T21:53:02.165Z,53.92
2023-05-07T21:55:29.092Z,55.08
2023-05-07T21:58:04.811Z,68.63
2023-05-07T22:00:33.029Z,60.53
2023-05-07T22:03:00.295Z,67.55
2023-05-07T22:05:27.412Z,71.55
2023-05-07T22:07:54.301Z,62.75
2023-05-07T22:10:22.943Z,60.65
2023-05-07T22:12:50.208Z,57.97
2023-05-07T22:15:18.313Z,61.58
2023-05-07T22:17:45.493Z,55.43
2023-05-07T22:20:15.914Z,59.17
2023-05-07T22:22:52.289Z,60.75
2023-05-07T22:25:20.238Z,63.00
2023-05-07T22:27:47.077Z,58.50
2023-05-07T22:30:14.231Z,55.90
2023-05-07T22:32:44.647Z,56.03
2023-05-07T22:35:11.594Z,51.83
2023-05-07T22:37:40.484Z,57.17
2023-05-07T22:40:08.702Z,56.83
2023-05-07T22:42:35.575Z,54.17
2023-05-07T22:45:02.499Z,56.08
2023-05-07T22:47:31.011Z,61.97
2023-05-07T22:50:07.290Z,68.20
2023-05-07T22:52:34.599Z,71.05
2023-05-07T22:55:01.567Z,72.18
2023-05-07T22:57:28.466Z,72.63
2023-05-07T22:59:58.278Z,68.68
2023-05-07T23:02:28.034Z,70.25
2023-05-07T23:04:55.126Z,67.22
2023-05-07T23:07:22.118Z,70.28
2023-05-07T23:09:51.072Z,71.20
2023-05-07T23:12:17.976Z,69.65
2023-05-07T23:14:44.840Z,69.55
2023-05-07T23:17:11.877Z,65.22
2023-05-07T23:19:38.835Z,75.22
2023-05-07T23:22:07.087Z,72.68
2023-05-07T23:24:34.994Z,67.88
2023-05-07T23:27:05.750Z,57.40
2023-05-07T23:29:32.805Z,62.67
2023-05-07T23:32:00.919Z,56.85
2023-05-07T23:34:29.765Z,60.40
2023-05-07T23:36:56.626Z,53.20
2023-05-07T23:39:29.500Z,57.03
2023-05-07T23:41:56.381Z,62.22
2023-05-07T23:44:24.546Z,52.90
2023-05-07T23:46:51.462Z,49.43
2023-05-07T23:49:18.317Z,51.88
2023-05-07T23:51:45.182Z,43.57
2023-05-07T23:54:12.062Z,52.30
2023-05-07T23:56:39.958Z,53.93
2023-05-07T23:59:06.892Z,51.70
